sensor_id;sensor_type;location;lat;lon;timestamp;pressure;altitude;pressure_sealevel;temperature
76901;BMP280;65859;43.020;25.096;2023-05-29T00:01:58;99100.59;;;19.96
76901;BMP280;65859;43.020;25.096;2023-05-29T00:04:25;99108.50;;;19.12
76901;BMP280;65859;43.020;25.096;2023-05-29T00:06:51;99113.28;;;19.99
76901;BMP280;65859;43.020;25.096;2023-05-29T00:09:18;99110.31;;;20.46
76901;BMP280;65859;43.020;25.096;2023-05-29T00:11:44;99108.78;;;20.48
76901;BMP280;65859;43.020;25.096;2023-05-29T00:14:17;99113.34;;;20.55
76901;BMP280;65859;43.020;25.096;2023-05-29T00:16:46;99108.03;;;20.44
76901;BMP280;65859;43.020;25.096;2023-05-29T00:19:13;99110.53;;;20.72
76901;BMP280;65859;43.020;25.096;2023-05-29T00:21:40;99107.94;;;19.85
76901;BMP280;65859;43.020;25.096;2023-05-29T00:24:06;99100.72;;;19.54
76901;BMP280;65859;43.020;25.096;2023-05-29T00:26:33;99113.06;;;20.35
76901;BMP280;65859;43.020;25.096;2023-05-29T00:28:59;99112.94;;;20.56
76901;BMP280;65859;43.020;25.096;2023-05-29T00:31:25;99112.91;;;20.60
76901;BMP280;65859;43.020;25.096;2023-05-29T00:33:52;99103.09;;;20.32
76901;BMP280;65859;43.020;25.096;2023-05-29T00:36:18;99108.63;;;20.66
76901;BMP280;65859;43.020;25.096;2023-05-29T00:38:45;99109.44;;;20.59
76901;BMP280;65859;43.020;25.096;2023-05-29T00:41:17;99112.00;;;20.22
76901;BMP280;65859;43.020;25.096;2023-05-29T00:43:44;99114.63;;;19.24
76901;BMP280;65859;43.020;25.096;2023-05-29T00:46:11;99117.31;;;19.27
76901;BMP280;65859;43.020;25.096;2023-05-29T00:48:38;99114.25;;;19.18
76901;BMP280;65859;43.020;25.096;2023-05-29T00:51:05;99112.34;;;18.97
76901;BMP280;65859;43.020;25.096;2023-05-29T00:53:32;99119.59;;;19.43
76901;BMP280;65859;43.020;25.096;2023-05-29T00:55:59;99112.72;;;20.29
76901;BMP280;65859;43.020;25.096;2023-05-29T00:58:27;99108.81;;;20.37
76901;BMP280;65859;43.020;25.096;2023-05-29T01:00:53;99113.09;;;19.33
76901;BMP280;65859;43.020;25.096;2023-05-29T01:03:20;99109.50;;;19.79
76901;BMP280;65859;43.020;25.096;2023-05-29T01:05:52;99108.03;;;20.40
76901;BMP280;65859;43.020;25.096;2023-05-29T01:08:19;99118.59;;;20.14
76901;BMP280;65859;43.020;25.096;2023-05-29T01:10:46;99120.22;;;20.63
76901;BMP280;65859;43.020;25.096;2023-05-29T01:13:23;99118.25;;;20.67
76901;BMP280;65859;43.020;25.096;2023-05-29T01:16:04;99122.56;;;20.57
76901;BMP280;65859;43.020;25.096;2023-05-29T01:19:00;99116.59;;;20.84
76901;BMP280;65859;43.020;25.096;2023-05-29T01:27:17;99108.16;;;20.74
76901;BMP280;65859;43.020;25.096;2023-05-29T01:29:44;99103.69;;;20.57
76901;BMP280;65859;43.020;25.096;2023-05-29T01:32:12;99096.41;;;19.85
76901;BMP280;65859;43.020;25.096;2023-05-29T01:34:39;99096.91;;;19.62
76901;BMP280;65859;43.020;25.096;2023-05-29T01:37:05;99091.50;;;19.55
76901;BMP280;65859;43.020;25.096;2023-05-29T01:39:32;99088.00;;;19.65
76901;BMP280;65859;43.020;25.096;2023-05-29T01:41:59;99081.03;;;19.82
76901;BMP280;65859;43.020;25.096;2023-05-29T01:44:27;99079.28;;;20.20
76901;BMP280;65859;43.020;25.096;2023-05-29T01:46:55;99083.22;;;20.04
76901;BMP280;65859;43.020;25.096;2023-05-29T01:49:24;99091.81;;;20.48
76901;BMP280;65859;43.020;25.096;2023-05-29T01:51:52;99085.00;;;20.32
76901;BMP280;65859;43.020;25.096;2023-05-29T01:54:19;99079.16;;;20.37
76901;BMP280;65859;43.020;25.096;2023-05-29T01:56:47;99086.53;;;20.30
76901;BMP280;65859;43.020;25.096;2023-05-29T01:59:14;99082.34;;;20.25
76901;BMP280;65859;43.020;25.096;2023-05-29T02:01:40;99090.69;;;19.58
76901;BMP280;65859;43.020;25.096;2023-05-29T02:04:07;99088.09;;;20.24
76901;BMP280;65859;43.020;25.096;2023-05-29T02:06:34;99091.66;;;20.14
76901;BMP280;65859;43.020;25.096;2023-05-29T02:09:00;99100.06;;;20.23
76901;BMP280;65859;43.020;25.096;2023-05-29T02:11:27;99088.09;;;20.31
76901;BMP280;65859;43.020;25.096;2023-05-29T02:13:53;99089.66;;;20.25
76901;BMP280;65859;43.020;25.096;2023-05-29T02:16:20;99094.50;;;19.78
76901;BMP280;65859;43.020;25.096;2023-05-29T02:18:47;99097.72;;;20.28
76901;BMP280;65859;43.020;25.096;2023-05-29T02:21:17;99092.91;;;19.95
76901;BMP280;65859;43.020;25.096;2023-05-29T02:23:43;99091.78;;;19.82
76901;BMP280;65859;43.020;25.096;2023-05-29T02:26:11;99096.09;;;19.50
76901;BMP280;65859;43.020;25.096;2023-05-29T02:28:38;99093.63;;;20.02
76901;BMP280;65859;43.020;25.096;2023-05-29T02:31:04;99102.00;;;20.19
76901;BMP280;65859;43.020;25.096;2023-05-29T02:33:31;99102.84;;;20.08
76901;BMP280;65859;43.020;25.096;2023-05-29T02:35:57;99103.44;;;20.37
76901;BMP280;65859;43.020;25.096;2023-05-29T02:38:23;99098.22;;;20.02
76901;BMP280;65859;43.020;25.096;2023-05-29T02:40:50;99100.16;;;20.05
76901;BMP280;65859;43.020;25.096;2023-05-29T02:43:16;99095.97;;;19.93
76901;BMP280;65859;43.020;25.096;2023-05-29T02:45:43;99093.81;;;19.53
76901;BMP280;65859;43.020;25.096;2023-05-29T02:48:09;99094.97;;;19.44
76901;BMP280;65859;43.020;25.096;2023-05-29T02:50:35;99092.25;;;19.59
76901;BMP280;65859;43.020;25.096;2023-05-29T02:53:04;99092.31;;;19.48
76901;BMP280;65859;43.020;25.096;2023-05-29T02:55:30;99094.97;;;19.55
76901;BMP280;65859;43.020;25.096;2023-05-29T02:57:58;99100.63;;;19.82
76901;BMP280;65859;43.020;25.096;2023-05-29T03:00:26;99101.78;;;19.88
76901;BMP280;65859;43.020;25.096;2023-05-29T03:02:54;99106.16;;;20.34
76901;BMP280;65859;43.020;25.096;2023-05-29T03:05:21;99102.22;;;19.69
76901;BMP280;65859;43.020;25.096;2023-05-29T03:07:48;99104.56;;;19.60
76901;BMP280;65859;43.020;25.096;2023-05-29T03:10:14;99105.97;;;20.00
76901;BMP280;65859;43.020;25.096;2023-05-29T03:12:44;99117.59;;;20.52
76901;BMP280;65859;43.020;25.096;2023-05-29T03:15:10;99114.94;;;20.45
76901;BMP280;65859;43.020;25.096;2023-05-29T03:17:37;99119.00;;;20.08
76901;BMP280;65859;43.020;25.096;2023-05-29T03:20:05;99121.75;;;19.91
76901;BMP280;65859;43.020;25.096;2023-05-29T03:22:34;99123.34;;;19.81
76901;BMP280;65859;43.020;25.096;2023-05-29T03:25:03;99129.31;;;20.28
76901;BMP280;65859;43.020;25.096;2023-05-29T03:27:31;99130.53;;;20.09
76901;BMP280;65859;43.020;25.096;2023-05-29T03:29:58;99130.69;;;19.73
76901;BMP280;65859;43.020;25.096;2023-05-29T03:32:24;99134.00;;;20.13
76901;BMP280;65859;43.020;25.096;2023-05-29T03:34:51;99137.53;;;20.69
76901;BMP280;65859;43.020;25.096;2023-05-29T03:37:17;99135.00;;;20.37
76901;BMP280;65859;43.020;25.096;2023-05-29T03:39:44;99133.91;;;20.31
76901;BMP280;65859;43.020;25.096;2023-05-29T03:42:10;99130.66;;;20.57
76901;BMP280;65859;43.020;25.096;2023-05-29T03:44:37;99131.31;;;20.13
76901;BMP280;65859;43.020;25.096;2023-05-29T03:47:03;99127.09;;;20.05
76901;BMP280;65859;43.020;25.096;2023-05-29T03:49:29;99130.78;;;20.36
76901;BMP280;65859;43.020;25.096;2023-05-29T03:51:56;99132.72;;;20.39
76901;BMP280;65859;43.020;25.096;2023-05-29T03:54:22;99130.50;;;20.79
76901;BMP280;65859;43.020;25.096;2023-05-29T03:56:49;99136.44;;;20.56
76901;BMP280;65859;43.020;25.096;2023-05-29T03:59:15;99138.81;;;20.47
76901;BMP280;65859;43.020;25.096;2023-05-29T04:01:42;99135.63;;;20.62
76901;BMP280;65859;43.020;25.096;2023-05-29T04:04:08;99147.81;;;20.22
76901;BMP280;65859;43.020;25.096;2023-05-29T04:06:34;99149.38;;;20.13
76901;BMP280;65859;43.020;25.096;2023-05-29T04:09:05;99147.63;;;21.06
76901;BMP280;65859;43.020;25.096;2023-05-29T04:11:33;99147.88;;;20.78
76901;BMP280;65859;43.020;25.096;2023-05-29T04:14:02;99151.00;;;21.17
76901;BMP280;65859;43.020;25.096;2023-05-29T04:16:29;99148.91;;;20.91
76901;BMP280;65859;43.020;25.096;2023-05-29T04:18:55;99155.44;;;20.34
76901;BMP280;65859;43.020;25.096;2023-05-29T04:21:22;99159.69;;;20.39
76901;BMP280;65859;43.020;25.096;2023-05-29T04:23:48;99160.09;;;20.30
76901;BMP280;65859;43.020;25.096;2023-05-29T04:26:15;99159.31;;;20.30
76901;BMP280;65859;43.020;25.096;2023-05-29T04:28:43;99149.88;;;20.63
76901;BMP280;65859;43.020;25.096;2023-05-29T04:31:09;99146.66;;;20.20
76901;BMP280;65859;43.020;25.096;2023-05-29T04:33:40;99156.50;;;21.07
76901;BMP280;65859;43.020;25.096;2023-05-29T04:36:07;99158.25;;;20.17
76901;BMP280;65859;43.020;25.096;2023-05-29T04:38:34;99154.78;;;20.09
76901;BMP280;65859;43.020;25.096;2023-05-29T04:41:03;99158.31;;;19.95
76901;BMP280;65859;43.020;25.096;2023-05-29T04:43:29;99156.00;;;20.01
76901;BMP280;65859;43.020;25.096;2023-05-29T04:45:56;99162.41;;;20.91
76901;BMP280;65859;43.020;25.096;2023-05-29T04:48:22;99160.16;;;21.30
76901;BMP280;65859;43.020;25.096;2023-05-29T04:50:49;99158.63;;;21.26
76901;BMP280;65859;43.020;25.096;2023-05-29T04:53:15;99162.41;;;21.32
76901;BMP280;65859;43.020;25.096;2023-05-29T04:55:42;99153.88;;;21.37
76901;BMP280;65859;43.020;25.096;2023-05-29T04:58:08;99160.63;;;20.73
76901;BMP280;65859;43.020;25.096;2023-05-29T05:00:35;99158.94;;;20.94
76901;BMP280;65859;43.020;25.096;2023-05-29T05:03:01;99164.94;;;21.12
76901;BMP280;65859;43.020;25.096;2023-05-29T05:05:27;99165.03;;;20.42
76901;BMP280;65859;43.020;25.096;2023-05-29T05:07:54;99164.41;;;21.28
76901;BMP280;65859;43.020;25.096;2023-05-29T05:10:21;99169.31;;;21.36
76901;BMP280;65859;43.020;25.096;2023-05-29T05:12:47;99168.97;;;21.72
76901;BMP280;65859;43.020;25.096;2023-05-29T05:15:13;99165.09;;;21.73
76901;BMP280;65859;43.020;25.096;2023-05-29T05:17:40;99162.81;;;21.34
76901;BMP280;65859;43.020;25.096;2023-05-29T05:20:06;99169.88;;;21.92
76901;BMP280;65859;43.020;25.096;2023-05-29T05:22:34;99176.47;;;21.91
76901;BMP280;65859;43.020;25.096;2023-05-29T05:25:01;99173.22;;;21.70
76901;BMP280;65859;43.020;25.096;2023-05-29T05:27:27;99181.97;;;21.81
76901;BMP280;65859;43.020;25.096;2023-05-29T05:29:55;99184.13;;;22.81
76901;BMP280;65859;43.020;25.096;2023-05-29T05:32:21;99180.41;;;22.44
76901;BMP280;65859;43.020;25.096;2023-05-29T05:34:48;99176.34;;;23.30
76901;BMP280;65859;43.020;25.096;2023-05-29T05:37:14;99183.31;;;23.07
76901;BMP280;65859;43.020;25.096;2023-05-29T05:39:40;99184.34;;;23.13
76901;BMP280;65859;43.020;25.096;2023-05-29T05:42:07;99187.97;;;23.07
76901;BMP280;65859;43.020;25.096;2023-05-29T05:44:33;99183.31;;;23.50
76901;BMP280;65859;43.020;25.096;2023-05-29T05:47:00;99180.34;;;22.98
76901;BMP280;65859;43.020;25.096;2023-05-29T05:49:26;99181.91;;;23.19
76901;BMP280;65859;43.020;25.096;2023-05-29T05:51:53;99187.44;;;22.65
76901;BMP280;65859;43.020;25.096;2023-05-29T05:54:19;99183.03;;;22.75
76901;BMP280;65859;43.020;25.096;2023-05-29T05:56:46;99186.94;;;22.97
76901;BMP280;65859;43.020;25.096;2023-05-29T05:59:12;99188.22;;;22.66
76901;BMP280;65859;43.020;25.096;2023-05-29T06:01:42;99182.09;;;22.61
76901;BMP280;65859;43.020;25.096;2023-05-29T06:04:08;99177.16;;;22.29
76901;BMP280;65859;43.020;25.096;2023-05-29T06:06:35;99182.97;;;21.97
76901;BMP280;65859;43.020;25.096;2023-05-29T06:09:04;99179.72;;;21.79
76901;BMP280;65859;43.020;25.096;2023-05-29T06:11:31;99180.72;;;22.23
76901;BMP280;65859;43.020;25.096;2023-05-29T06:13:58;99181.41;;;21.62
76901;BMP280;65859;43.020;25.096;2023-05-29T06:16:24;99182.38;;;22.13
76901;BMP280;65859;43.020;25.096;2023-05-29T06:18:53;99180.75;;;21.89
76901;BMP280;65859;43.020;25.096;2023-05-29T06:21:20;99176.41;;;21.61
76901;BMP280;65859;43.020;25.096;2023-05-29T06:23:47;99176.88;;;21.90
76901;BMP280;65859;43.020;25.096;2023-05-29T06:26:14;99185.97;;;22.03
76901;BMP280;65859;43.020;25.096;2023-05-29T06:28:42;99170.78;;;21.45
76901;BMP280;65859;43.020;25.096;2023-05-29T06:31:08;99180.25;;;21.97
76901;BMP280;65859;43.020;25.096;2023-05-29T06:33:36;99185.53;;;22.08
76901;BMP280;65859;43.020;25.096;2023-05-29T06:36:04;99181.16;;;21.87
76901;BMP280;65859;43.020;25.096;2023-05-29T06:38:30;99178.63;;;22.61
76901;BMP280;65859;43.020;25.096;2023-05-29T06:40:57;99180.44;;;22.68
76901;BMP280;65859;43.020;25.096;2023-05-29T06:43:23;99181.50;;;22.50
76901;BMP280;65859;43.020;25.096;2023-05-29T06:45:49;99177.09;;;22.60
76901;BMP280;65859;43.020;25.096;2023-05-29T06:48:16;99176.38;;;21.98
76901;BMP280;65859;43.020;25.096;2023-05-29T06:50:43;99170.34;;;21.87
76901;BMP280;65859;43.020;25.096;2023-05-29T06:53:09;99182.41;;;22.10
76901;BMP280;65859;43.020;25.096;2023-05-29T06:55:36;99174.88;;;21.94
76901;BMP280;65859;43.020;25.096;2023-05-29T06:58:02;99173.28;;;22.00
76901;BMP280;65859;43.020;25.096;2023-05-29T07:00:29;99170.94;;;22.02
76901;BMP280;65859;43.020;25.096;2023-05-29T07:02:55;99169.22;;;21.81
76901;BMP280;65859;43.020;25.096;2023-05-29T07:05:27;99171.84;;;21.88
76901;BMP280;65859;43.020;25.096;2023-05-29T07:07:53;99178.34;;;21.60
76901;BMP280;65859;43.020;25.096;2023-05-29T07:10:20;99179.72;;;22.10
76901;BMP280;65859;43.020;25.096;2023-05-29T07:12:46;99175.63;;;21.98
76901;BMP280;65859;43.020;25.096;2023-05-29T07:15:13;99174.53;;;21.58
76901;BMP280;65859;43.020;25.096;2023-05-29T07:17:39;99178.22;;;21.75
76901;BMP280;65859;43.020;25.096;2023-05-29T07:20:08;99176.44;;;22.52
76901;BMP280;65859;43.020;25.096;2023-05-29T07:22:35;99175.78;;;22.45
76901;BMP280;65859;43.020;25.096;2023-05-29T07:25:02;99182.69;;;22.73
76901;BMP280;65859;43.020;25.096;2023-05-29T07:27:29;99172.16;;;22.78
76901;BMP280;65859;43.020;25.096;2023-05-29T07:29:56;99186.47;;;22.79
76901;BMP280;65859;43.020;25.096;2023-05-29T07:32:22;99180.53;;;22.37
76901;BMP280;65859;43.020;25.096;2023-05-29T07:34:49;99182.41;;;21.79
76901;BMP280;65859;43.020;25.096;2023-05-29T07:37:20;99188.84;;;21.89
76901;BMP280;65859;43.020;25.096;2023-05-29T07:39:46;99185.84;;;21.01
76901;BMP280;65859;43.020;25.096;2023-05-29T07:42:13;99196.91;;;20.58
76901;BMP280;65859;43.020;25.096;2023-05-29T07:44:39;99189.38;;;20.91
76901;BMP280;65859;43.020;25.096;2023-05-29T07:47:08;99197.91;;;21.34
76901;BMP280;65859;43.020;25.096;2023-05-29T07:49:35;99194.59;;;21.19
76901;BMP280;65859;43.020;25.096;2023-05-29T07:52:04;99208.53;;;21.03
76901;BMP280;65859;43.020;25.096;2023-05-29T07:54:33;99203.09;;;20.55
76901;BMP280;65859;43.020;25.096;2023-05-29T07:57:00;99210.94;;;20.25
76901;BMP280;65859;43.020;25.096;2023-05-29T07:59:28;99216.03;;;19.91
76901;BMP280;65859;43.020;25.096;2023-05-29T08:01:55;99222.09;;;20.20
76901;BMP280;65859;43.020;25.096;2023-05-29T08:04:28;99207.09;;;20.26
76901;BMP280;65859;43.020;25.096;2023-05-29T08:06:55;99208.91;;;21.54
76901;BMP280;65859;43.020;25.096;2023-05-29T08:09:23;99201.88;;;21.63
76901;BMP280;65859;43.020;25.096;2023-05-29T08:11:49;99215.06;;;21.54
76901;BMP280;65859;43.020;25.096;2023-05-29T08:14:16;99219.88;;;22.11
76901;BMP280;65859;43.020;25.096;2023-05-29T08:16:42;99224.53;;;21.35
76901;BMP280;65859;43.020;25.096;2023-05-29T08:19:09;99215.47;;;21.90
76901;BMP280;65859;43.020;25.096;2023-05-29T08:21:36;99216.13;;;21.67
76901;BMP280;65859;43.020;25.096;2023-05-29T08:24:04;99221.19;;;22.30
76901;BMP280;65859;43.020;25.096;2023-05-29T08:26:31;99221.16;;;21.96
76901;BMP280;65859;43.020;25.096;2023-05-29T08:28:58;99219.72;;;21.91
76901;BMP280;65859;43.020;25.096;2023-05-29T08:31:24;99219.44;;;22.13
76901;BMP280;65859;43.020;25.096;2023-05-29T08:33:52;99218.63;;;20.96
76901;BMP280;65859;43.020;25.096;2023-05-29T08:36:18;99216.00;;;21.78
76901;BMP280;65859;43.020;25.096;2023-05-29T08:38:50;99220.56;;;21.81
76901;BMP280;65859;43.020;25.096;2023-05-29T08:44:14;99229.59;;;21.71
76901;BMP280;65859;43.020;25.096;2023-05-29T08:46:41;99230.94;;;21.49
76901;BMP280;65859;43.020;25.096;2023-05-29T08:49:08;99229.97;;;21.70
76901;BMP280;65859;43.020;25.096;2023-05-29T08:51:41;99223.00;;;22.06
76901;BMP280;65859;43.020;25.096;2023-05-29T08:54:11;99231.53;;;22.35
76901;BMP280;65859;43.020;25.096;2023-05-29T08:56:38;99228.94;;;22.24
76901;BMP280;65859;43.020;25.096;2023-05-29T08:59:05;99231.38;;;21.81
76901;BMP280;65859;43.020;25.096;2023-05-29T09:01:32;99223.66;;;21.83
76901;BMP280;65859;43.020;25.096;2023-05-29T09:04:00;99230.97;;;21.45
76901;BMP280;65859;43.020;25.096;2023-05-29T09:06:29;99226.97;;;20.53
76901;BMP280;65859;43.020;25.096;2023-05-29T09:08:57;99228.56;;;20.47
76901;BMP280;65859;43.020;25.096;2023-05-29T09:11:25;99232.88;;;20.30
76901;BMP280;65859;43.020;25.096;2023-05-29T09:13:52;99224.88;;;19.98
76901;BMP280;65859;43.020;25.096;2023-05-29T09:16:23;99223.34;;;20.01
76901;BMP280;65859;43.020;25.096;2023-05-29T09:18:50;99228.38;;;19.95
76901;BMP280;65859;43.020;25.096;2023-05-29T09:21:27;99226.84;;;19.84
76901;BMP280;65859;43.020;25.096;2023-05-29T09:24:03;99225.28;;;19.86
76901;BMP280;65859;43.020;25.096;2023-05-29T09:26:31;99227.91;;;20.18
76901;BMP280;65859;43.020;25.096;2023-05-29T09:28:58;99228.31;;;20.90
76901;BMP280;65859;43.020;25.096;2023-05-29T09:31:25;99227.16;;;20.07
76901;BMP280;65859;43.020;25.096;2023-05-29T09:33:51;99219.28;;;20.55
76901;BMP280;65859;43.020;25.096;2023-05-29T09:36:21;99223.72;;;19.99
76901;BMP280;65859;43.020;25.096;2023-05-29T09:38:49;99217.94;;;20.04
76901;BMP280;65859;43.020;25.096;2023-05-29T09:41:23;99216.06;;;19.84
76901;BMP280;65859;43.020;25.096;2023-05-29T09:43:51;99221.75;;;20.10
76901;BMP280;65859;43.020;25.096;2023-05-29T09:46:19;99217.13;;;20.15
76901;BMP280;65859;43.020;25.096;2023-05-29T09:48:46;99222.50;;;20.25
76901;BMP280;65859;43.020;25.096;2023-05-29T09:51:23;99224.03;;;20.23
76901;BMP280;65859;43.020;25.096;2023-05-29T09:53:50;99222.03;;;20.41
76901;BMP280;65859;43.020;25.096;2023-05-29T09:56:23;99216.31;;;20.28
76901;BMP280;65859;43.020;25.096;2023-05-29T09:58:52;99221.81;;;20.84
76901;BMP280;65859;43.020;25.096;2023-05-29T10:01:19;99228.97;;;21.53
76901;BMP280;65859;43.020;25.096;2023-05-29T10:03:47;99222.13;;;22.97
76901;BMP280;65859;43.020;25.096;2023-05-29T10:06:18;99227.31;;;22.04
76901;BMP280;65859;43.020;25.096;2023-05-29T10:08:47;99215.84;;;22.53
76901;BMP280;65859;43.020;25.096;2023-05-29T10:11:21;99218.03;;;23.55
76901;BMP280;65859;43.020;25.096;2023-05-29T10:13:54;99222.38;;;25.10
76901;BMP280;65859;43.020;25.096;2023-05-29T10:16:24;99215.66;;;24.33
76901;BMP280;65859;43.020;25.096;2023-05-29T10:18:55;99213.00;;;23.34
76901;BMP280;65859;43.020;25.096;2023-05-29T10:21:26;99210.94;;;24.37
76901;BMP280;65859;43.020;25.096;2023-05-29T10:23:56;99223.75;;;22.68
76901;BMP280;65859;43.020;25.096;2023-05-29T10:26:27;99215.06;;;23.26
76901;BMP280;65859;43.020;25.096;2023-05-29T10:32:12;99202.97;;;23.94
76901;BMP280;65859;43.020;25.096;2023-05-29T10:37:40;99180.81;;;23.59
76901;BMP280;65859;43.020;25.096;2023-05-29T10:40:10;99180.16;;;25.09
76901;BMP280;65859;43.020;25.096;2023-05-29T10:42:42;99173.97;;;23.08
76901;BMP280;65859;43.020;25.096;2023-05-29T10:50:43;99177.09;;;22.60
76901;BMP280;65859;43.020;25.096;2023-05-29T10:53:15;99171.84;;;22.22
76901;BMP280;65859;43.020;25.096;2023-05-29T10:55:42;99177.72;;;23.18
76901;BMP280;65859;43.020;25.096;2023-05-29T10:58:19;99181.34;;;23.90
76901;BMP280;65859;43.020;25.096;2023-05-29T11:00:47;99170.56;;;23.67
76901;BMP280;65859;43.020;25.096;2023-05-29T11:03:32;99165.25;;;23.20
76901;BMP280;65859;43.020;25.096;2023-05-29T11:06:06;99156.50;;;22.89
76901;BMP280;65859;43.020;25.096;2023-05-29T11:08:47;99162.75;;;23.73
76901;BMP280;65859;43.020;25.096;2023-05-29T11:13:55;99168.41;;;23.78
76901;BMP280;65859;43.020;25.096;2023-05-29T11:18:52;99164.13;;;24.33
76901;BMP280;65859;43.020;25.096;2023-05-29T11:23:52;99147.56;;;24.64
76901;BMP280;65859;43.020;25.096;2023-05-29T11:26:26;99156.19;;;24.58
76901;BMP280;65859;43.020;25.096;2023-05-29T11:28:53;99155.09;;;25.30
76901;BMP280;65859;43.020;25.096;2023-05-29T11:31:20;99151.53;;;25.04
76901;BMP280;65859;43.020;25.096;2023-05-29T11:33:50;99156.63;;;25.85
76901;BMP280;65859;43.020;25.096;2023-05-29T11:36:18;99156.59;;;24.41
76901;BMP280;65859;43.020;25.096;2023-05-29T11:38:48;99157.06;;;24.03
76901;BMP280;65859;43.020;25.096;2023-05-29T11:41:16;99142.22;;;23.91
76901;BMP280;65859;43.020;25.096;2023-05-29T11:43:45;99143.94;;;23.82
76901;BMP280;65859;43.020;25.096;2023-05-29T11:46:23;99139.56;;;24.56
76901;BMP280;65859;43.020;25.096;2023-05-29T11:48:49;99140.19;;;23.96
76901;BMP280;65859;43.020;25.096;2023-05-29T11:51:16;99133.91;;;23.63
76901;BMP280;65859;43.020;25.096;2023-05-29T11:53:43;99124.09;;;22.86
76901;BMP280;65859;43.020;25.096;2023-05-29T11:56:10;99122.69;;;22.78
76901;BMP280;65859;43.020;25.096;2023-05-29T11:58:38;99120.72;;;23.02
76901;BMP280;65859;43.020;25.096;2023-05-29T12:01:08;99117.44;;;23.34
76901;BMP280;65859;43.020;25.096;2023-05-29T12:03:41;99114.34;;;22.92
76901;BMP280;65859;43.020;25.096;2023-05-29T12:06:08;99112.38;;;23.36
76901;BMP280;65859;43.020;25.096;2023-05-29T12:08:36;99113.34;;;23.65
76901;BMP280;65859;43.020;25.096;2023-05-29T12:11:03;99118.75;;;24.66
76901;BMP280;65859;43.020;25.096;2023-05-29T12:13:29;99112.63;;;26.50
76901;BMP280;65859;43.020;25.096;2023-05-29T12:15:58;99113.34;;;25.24
76901;BMP280;65859;43.020;25.096;2023-05-29T12:18:26;99118.16;;;25.33
76901;BMP280;65859;43.020;25.096;2023-05-29T12:21:00;99114.94;;;24.15
76901;BMP280;65859;43.020;25.096;2023-05-29T12:23:28;99113.72;;;23.04
76901;BMP280;65859;43.020;25.096;2023-05-29T12:25:56;99114.94;;;23.43
76901;BMP280;65859;43.020;25.096;2023-05-29T12:28:23;99111.69;;;24.04
76901;BMP280;65859;43.020;25.096;2023-05-29T12:30:50;99113.72;;;23.83
76901;BMP280;65859;43.020;25.096;2023-05-29T12:33:29;99121.13;;;23.99
76901;BMP280;65859;43.020;25.096;2023-05-29T12:36:06;99104.34;;;23.88
76901;BMP280;65859;43.020;25.096;2023-05-29T12:38:41;99105.59;;;23.83
76901;BMP280;65859;43.020;25.096;2023-05-29T12:41:28;99106.47;;;24.29
76901;BMP280;65859;43.020;25.096;2023-05-29T12:43:56;99103.34;;;24.14
76901;BMP280;65859;43.020;25.096;2023-05-29T12:46:24;99094.69;;;24.36
76901;BMP280;65859;43.020;25.096;2023-05-29T12:48:55;99090.78;;;24.98
76901;BMP280;65859;43.020;25.096;2023-05-29T12:51:28;99089.91;;;25.30
76901;BMP280;65859;43.020;25.096;2023-05-29T12:53:55;99113.28;;;24.21
76901;BMP280;65859;43.020;25.096;2023-05-29T12:56:24;99114.34;;;23.12
76901;BMP280;65859;43.020;25.096;2023-05-29T12:59:12;99119.16;;;22.57
76901;BMP280;65859;43.020;25.096;2023-05-29T13:01:39;99119.97;;;22.54
76901;BMP280;65859;43.020;25.096;2023-05-29T13:04:06;99116.31;;;22.14
76901;BMP280;65859;43.020;25.096;2023-05-29T13:06:34;99130.63;;;22.15
76901;BMP280;65859;43.020;25.096;2023-05-29T13:09:01;99125.25;;;22.11
76901;BMP280;65859;43.020;25.096;2023-05-29T13:11:27;99132.22;;;22.09
76901;BMP280;65859;43.020;25.096;2023-05-29T13:13:53;99127.06;;;21.91
76901;BMP280;65859;43.020;25.096;2023-05-29T13:16:20;99118.75;;;22.32
76901;BMP280;65859;43.020;25.096;2023-05-29T13:18:47;99120.91;;;22.44
76901;BMP280;65859;43.020;25.096;2023-05-29T13:21:15;99112.50;;;22.62
76901;BMP280;65859;43.020;25.096;2023-05-29T13:23:41;99114.16;;;22.56
76901;BMP280;65859;43.020;25.096;2023-05-29T13:26:07;99105.13;;;22.39
76901;BMP280;65859;43.020;25.096;2023-05-29T13:28:34;99103.78;;;23.41
76901;BMP280;65859;43.020;25.096;2023-05-29T13:31:00;99115.19;;;24.04
76901;BMP280;65859;43.020;25.096;2023-05-29T13:33:27;99123.97;;;23.76
76901;BMP280;65859;43.020;25.096;2023-05-29T13:35:53;99125.31;;;24.52
76901;BMP280;65859;43.020;25.096;2023-05-29T13:38:20;99126.75;;;24.41
76901;BMP280;65859;43.020;25.096;2023-05-29T13:40:46;99125.22;;;24.56
76901;BMP280;65859;43.020;25.096;2023-05-29T13:43:13;99124.28;;;24.63
76901;BMP280;65859;43.020;25.096;2023-05-29T13:45:39;99127.41;;;24.77
76901;BMP280;65859;43.020;25.096;2023-05-29T13:48:06;99127.34;;;24.48
76901;BMP280;65859;43.020;25.096;2023-05-29T13:50:33;99121.19;;;23.40
76901;BMP280;65859;43.020;25.096;2023-05-29T13:53:01;99127.25;;;22.34
76901;BMP280;65859;43.020;25.096;2023-05-29T13:55:27;99128.44;;;22.03
76901;BMP280;65859;43.020;25.096;2023-05-29T13:57:53;99131.81;;;22.10
76901;BMP280;65859;43.020;25.096;2023-05-29T14:00:20;99129.59;;;21.75
76901;BMP280;65859;43.020;25.096;2023-05-29T14:02:46;99130.38;;;22.29
76901;BMP280;65859;43.020;25.096;2023-05-29T14:05:13;99130.78;;;22.31
76901;BMP280;65859;43.020;25.096;2023-05-29T14:07:39;99140.75;;;21.73
76901;BMP280;65859;43.020;25.096;2023-05-29T14:10:06;99139.97;;;22.60
76901;BMP280;65859;43.020;25.096;2023-05-29T14:12:33;99136.28;;;22.74
76901;BMP280;65859;43.020;25.096;2023-05-29T14:14:59;99137.63;;;22.36
76901;BMP280;65859;43.020;25.096;2023-05-29T14:17:26;99130.03;;;22.54
76901;BMP280;65859;43.020;25.096;2023-05-29T14:19:55;99133.59;;;22.20
76901;BMP280;65859;43.020;25.096;2023-05-29T14:22:21;99131.22;;;22.53
76901;BMP280;65859;43.020;25.096;2023-05-29T14:24:48;99136.91;;;22.31
76901;BMP280;65859;43.020;25.096;2023-05-29T14:27:14;99137.75;;;22.79
76901;BMP280;65859;43.020;25.096;2023-05-29T14:29:41;99121.66;;;23.74